Coxim, Brazil
Current Conditions -  °F | °C
As of 9:00 AM on Tuesday 27 Jan 2015 (Local Time) from SBCG Reporting Station
Broken Clouds Broken Clouds  
Wind Chill: 72°   Ceiling: 10000
Heat Index: 72°   Visibility: 6mi
Dew Point: 70°   Wind: 7mph
Humidity: 94%   Direction: 70°ENE
Pressure: 30"   Gusts: NA
Location:  18.5°S, 54.75°W
Report Text: SBCG 271200Z 07006KT 9999 FEW003 SCT015 BKN100 22/21 Q1016
Loading
Personal Weather Stations






























Interactive Weather Map New forecast layout! Learn more

10-Day Weather Forecast

Advertisements
Track Severe Weather on mobile